createdAt,value
2018-02-15T00:00:02.709Z,14.80
2018-02-15T00:02:30.357Z,14.27
2018-02-15T00:04:58.024Z,13.67
2018-02-15T00:07:27.091Z,18.23
2018-02-15T00:09:54.915Z,14.43
2018-02-15T00:12:22.562Z,15.27
2018-02-15T00:14:50.246Z,16.30
2018-02-15T00:17:17.906Z,14.33
2018-02-15T00:19:45.652Z,18.13
2018-02-15T00:22:13.245Z,13.73
2018-02-15T00:24:41.090Z,13.43
2018-02-15T00:27:15.501Z,12.80
2018-02-15T00:29:43.250Z,13.57
2018-02-15T00:32:10.911Z,13.30
2018-02-15T00:34:38.566Z,16.50
2018-02-15T00:37:06.242Z,15.67
2018-02-15T00:39:33.922Z,14.27
2018-02-15T00:42:02.359Z,13.67
2018-02-15T00:44:38.180Z,13.90
2018-02-15T00:47:05.835Z,13.47
2018-02-15T00:49:33.520Z,12.50
2018-02-15T00:52:01.294Z,14.17
2018-02-15T00:54:29.072Z,14.40
2018-02-15T00:56:56.759Z,12.83
2018-02-15T00:59:24.391Z,12.73
2018-02-15T01:01:52.984Z,13.33
2018-02-15T01:04:20.971Z,12.80
2018-02-15T01:06:48.667Z,12.90
2018-02-15T01:09:16.327Z,13.27
2018-02-15T01:11:44.019Z,12.33
2018-02-15T01:14:15.675Z,12.70
2018-02-15T01:16:43.338Z,13.33
2018-02-15T01:19:12.687Z,13.37
2018-02-15T01:21:41.611Z,14.97
2018-02-15T01:24:09.442Z,12.83
2018-02-15T01:26:37.118Z,14.23
2018-02-15T01:29:04.792Z,13.43
2018-02-15T01:31:32.445Z,16.17
2018-02-15T01:34:00.879Z,15.60
2018-02-15T01:36:28.540Z,17.13
2018-02-15T01:38:56.188Z,15.17
2018-02-15T01:41:23.859Z,15.60
2018-02-15T01:43:51.554Z,15.40
2018-02-15T01:46:19.218Z,14.60
2018-02-15T01:48:46.825Z,16.27
2018-02-15T01:51:14.500Z,13.63
2018-02-15T01:53:42.178Z,17.27
2018-02-15T01:56:09.836Z,15.13
2018-02-15T01:58:37.540Z,12.93
2018-02-15T02:01:05.219Z,14.13
2018-02-15T02:03:32.869Z,12.87
2018-02-15T02:06:05.604Z,13.60
2018-02-15T02:08:33.282Z,12.40
2018-02-15T02:11:00.865Z,18.53
2018-02-15T02:13:28.510Z,16.13
2018-02-15T02:15:56.177Z,14.67
2018-02-15T02:18:24.605Z,14.73
2018-02-15T02:20:53.006Z,13.87
2018-02-15T02:23:20.675Z,13.13
2018-02-15T02:25:48.329Z,16.10
2018-02-15T02:28:15.988Z,15.83
2018-02-15T02:30:44.422Z,15.57
2018-02-15T02:33:12.083Z,13.10
2018-02-15T02:35:43.365Z,14.47
2018-02-15T02:38:11.008Z,13.80
2018-02-15T02:40:39.273Z,14.13
2018-02-15T02:43:06.934Z,13.03
2018-02-15T02:45:34.583Z,13.83
2018-02-15T02:48:02.263Z,11.93
2018-02-15T02:50:29.947Z,13.30
2018-02-15T02:52:57.590Z,13.73
2018-02-15T02:55:25.271Z,13.70
2018-02-15T02:57:52.926Z,14.13
2018-02-15T03:00:20.581Z,12.67
2018-02-15T03:02:48.256Z,16.40
2018-02-15T03:05:17.162Z,11.67
2018-02-15T03:07:44.821Z,14.63
2018-02-15T03:10:12.486Z,14.60
2018-02-15T03:12:40.121Z,13.63
2018-02-15T03:15:07.783Z,15.53
2018-02-15T03:17:35.436Z,16.80
2018-02-15T03:20:03.133Z,15.50
2018-02-15T03:22:30.713Z,12.43
2018-02-15T03:24:58.346Z,13.23
2018-02-15T03:27:25.976Z,13.20
2018-02-15T03:29:53.636Z,12.37
2018-02-15T03:32:21.292Z,13.63
2018-02-15T03:34:49.070Z,14.73
2018-02-15T03:37:16.727Z,13.13
2018-02-15T03:39:44.380Z,14.17
2018-02-15T03:42:12.070Z,14.63
2018-02-15T03:44:40.520Z,12.07
2018-02-15T03:47:08.178Z,12.43
2018-02-15T03:49:35.860Z,12.00
2018-02-15T03:52:03.505Z,12.23
2018-02-15T03:54:31.167Z,13.60
2018-02-15T03:56:58.845Z,12.23
2018-02-15T03:59:26.516Z,14.73
2018-02-15T04:01:54.153Z,12.07
2018-02-15T04:04:27.128Z,13.93
2018-02-15T04:06:55.556Z,12.80
2018-02-15T04:09:23.229Z,11.40
2018-02-15T04:11:50.848Z,12.43
2018-02-15T04:14:18.523Z,12.87
2018-02-15T04:16:46.168Z,14.40
2018-02-15T04:19:13.843Z,14.43
2018-02-15T04:21:41.523Z,13.37
2018-02-15T04:24:09.167Z,11.60
2018-02-15T04:26:36.807Z,12.83
2018-02-15T04:29:04.481Z,11.90
2018-02-15T04:31:32.896Z,12.13
2018-02-15T04:34:00.536Z,11.13
2018-02-15T04:36:28.215Z,11.40
2018-02-15T04:38:55.904Z,12.07
2018-02-15T04:41:23.567Z,13.17
2018-02-15T04:43:51.168Z,12.10
2018-02-15T04:46:18.843Z,12.60
2018-02-15T04:48:46.524Z,12.93
2018-02-15T04:51:14.210Z,11.97
2018-02-15T04:53:41.878Z,17.90
2018-02-15T04:56:09.597Z,13.07
2018-02-15T04:58:37.244Z,11.67
2018-02-15T05:01:04.924Z,11.80
2018-02-15T05:03:32.575Z,13.60
2018-02-15T05:06:00.210Z,10.23
2018-02-15T05:08:27.856Z,12.90
2018-02-15T05:10:55.544Z,13.80
2018-02-15T05:13:23.190Z,12.10
2018-02-15T05:15:50.881Z,12.63
2018-02-15T05:18:18.551Z,11.03
2018-02-15T05:20:46.967Z,12.50
2018-02-15T05:23:14.633Z,13.97
2018-02-15T05:25:42.479Z,11.43
2018-02-15T05:28:10.123Z,12.67
2018-02-15T05:30:38.552Z,11.93
2018-02-15T05:33:11.997Z,14.00
2018-02-15T05:35:39.680Z,14.83
2018-02-15T05:38:08.015Z,13.40
2018-02-15T05:40:35.660Z,11.97
2018-02-15T05:43:03.339Z,13.10
2018-02-15T05:45:38.999Z,13.90
2018-02-15T05:48:06.655Z,10.80
2018-02-15T05:50:34.350Z,13.57
2018-02-15T05:53:02.022Z,14.80
2018-02-15T05:55:30.431Z,14.03
2018-02-15T05:57:58.097Z,11.73
2018-02-15T06:00:25.760Z,13.27
2018-02-15T06:02:53.447Z,11.97
2018-02-15T06:05:21.093Z,12.97
2018-02-15T06:07:48.760Z,13.93
2018-02-15T06:10:16.429Z,12.60
2018-02-15T06:12:44.078Z,14.77
2018-02-15T06:15:13.794Z,14.07
2018-02-15T06:17:41.454Z,12.67
2018-02-15T06:20:09.126Z,14.57
2018-02-15T06:22:36.795Z,13.63
2018-02-15T06:25:04.453Z,14.73
2018-02-15T06:27:32.142Z,12.67
2018-02-15T06:29:59.809Z,15.73
2018-02-15T06:32:27.488Z,15.20
2018-02-15T06:34:55.908Z,13.87
2018-02-15T06:37:23.597Z,13.03
2018-02-15T06:39:51.283Z,17.87
2018-02-15T06:42:18.940Z,13.57
2018-02-15T06:44:46.653Z,15.63
2018-02-15T06:47:14.316Z,13.70
2018-02-15T06:49:41.960Z,17.37
2018-02-15T06:52:09.660Z,14.57
2018-02-15T06:54:37.330Z,15.57
2018-02-15T06:57:04.975Z,14.70
2018-02-15T06:59:32.616Z,13.97
2018-02-15T07:02:00.283Z,14.23
2018-02-15T07:04:27.928Z,14.70
2018-02-15T07:06:55.586Z,14.70
2018-02-15T07:09:24.021Z,15.00
2018-02-15T07:11:51.627Z,14.10
2018-02-15T07:14:25.354Z,19.30
2018-02-15T07:16:53.000Z,14.63
2018-02-15T07:19:21.371Z,14.27
2018-02-15T07:21:49.027Z,14.73
2018-02-15T07:24:16.704Z,13.87
2018-02-15T07:26:45.120Z,14.97
2018-02-15T07:29:12.787Z,16.10
2018-02-15T07:31:40.428Z,14.30
2018-02-15T07:34:08.060Z,15.93
2018-02-15T07:36:35.744Z,14.87
2018-02-15T07:39:03.468Z,15.80
2018-02-15T07:41:31.108Z,14.53
2018-02-15T07:43:58.783Z,17.07
2018-02-15T07:46:26.442Z,17.07
2018-02-15T07:48:54.124Z,17.67
2018-02-15T07:51:21.843Z,17.80
2018-02-15T07:53:49.617Z,15.97
2018-02-15T07:56:17.260Z,18.30
2018-02-15T07:58:45.735Z,17.90
2018-02-15T08:01:14.218Z,17.37
2018-02-15T08:03:41.880Z,19.33
2018-02-15T08:06:11.653Z,18.03
2018-02-15T08:08:39.287Z,18.03
2018-02-15T08:11:09.614Z,17.97
2018-02-15T08:13:37.302Z,20.50
2018-02-15T08:16:05.001Z,21.13
2018-02-15T08:18:39.082Z,17.50
2018-02-15T08:21:06.759Z,20.77
2018-02-15T08:23:34.592Z,19.50
2018-02-15T08:26:02.612Z,18.70
2018-02-15T08:28:33.584Z,20.57
2018-02-15T08:31:04.528Z,22.90
2018-02-15T08:33:32.451Z,20.37
2018-02-15T08:36:00.058Z,23.20
2018-02-15T08:38:27.719Z,19.93
2018-02-15T08:40:55.389Z,26.27
2018-02-15T08:43:23.286Z,23.80
2018-02-15T08:45:51.986Z,21.93
2018-02-15T08:48:19.891Z,25.10
2018-02-15T08:50:47.599Z,22.60
2018-02-15T08:53:20.304Z,23.63
2018-02-15T08:55:48.313Z,25.43
2018-02-15T08:58:16.755Z,26.27
2018-02-15T09:00:44.400Z,25.10
2018-02-15T09:03:12.040Z,24.80
2018-02-15T09:05:39.686Z,23.93
2018-02-15T09:08:07.318Z,24.17
2018-02-15T09:10:35.009Z,25.60
2018-02-15T09:13:02.670Z,28.27
2018-02-15T09:15:35.678Z,24.93
2018-02-15T09:18:03.326Z,28.47
2018-02-15T09:20:31.024Z,26.53
2018-02-15T09:22:58.697Z,24.63
2018-02-15T09:25:26.354Z,24.70
2018-02-15T09:27:54.024Z,22.60
2018-02-15T09:30:21.699Z,24.33
2018-02-15T09:32:49.371Z,24.30
2018-02-15T09:35:17.021Z,26.33
2018-02-15T09:37:44.694Z,23.87
2018-02-15T09:40:12.312Z,22.00
2018-02-15T09:42:39.981Z,24.33
2018-02-15T09:45:14.359Z,23.33
2018-02-15T09:47:42.794Z,24.80
2018-02-15T09:50:10.482Z,22.77
2018-02-15T09:52:40.076Z,23.07
2018-02-15T09:55:13.207Z,28.43
2018-02-15T09:57:41.170Z,25.40
2018-02-15T10:00:09.603Z,24.23
2018-02-15T10:02:37.192Z,22.30
2018-02-15T10:05:07.904Z,24.70
2018-02-15T10:07:35.566Z,23.77
2018-02-15T10:10:03.263Z,25.17
2018-02-15T10:12:30.935Z,22.43
2018-02-15T10:14:58.598Z,20.33
2018-02-15T10:17:26.296Z,22.60
2018-02-15T10:19:53.970Z,21.93
2018-02-15T10:22:21.655Z,19.93
2018-02-15T10:24:51.933Z,25.37
2018-02-15T10:27:19.573Z,22.83
2018-02-15T10:29:47.246Z,21.30
2018-02-15T10:32:15.690Z,20.20
2018-02-15T10:34:45.391Z,21.73
2018-02-15T10:37:13.058Z,21.87
2018-02-15T10:39:40.719Z,20.60
2018-02-15T10:42:08.367Z,20.80
2018-02-15T10:44:36.058Z,22.47
2018-02-15T10:47:03.743Z,20.13
2018-02-15T10:49:31.472Z,19.43
2018-02-15T10:51:59.154Z,23.20
2018-02-15T10:54:26.791Z,20.00
2018-02-15T10:56:54.445Z,21.70
2018-02-15T10:59:22.100Z,22.07
2018-02-15T11:05:01.017Z,18.97
2018-02-15T11:07:28.625Z,22.33
2018-02-15T11:09:56.340Z,24.33
2018-02-15T11:12:24.000Z,23.33
2018-02-15T11:14:52.619Z,22.67
2018-02-15T11:17:20.284Z,23.97
2018-02-15T11:19:47.948Z,25.83
2018-02-15T11:22:15.594Z,24.13
2018-02-15T11:24:43.268Z,25.60
2018-02-15T11:27:10.883Z,23.37
2018-02-15T11:29:38.557Z,24.73
2018-02-15T11:32:06.223Z,29.07
2018-02-15T11:34:33.860Z,26.13
2018-02-15T11:37:01.550Z,28.70
2018-02-15T11:39:29.119Z,25.97
2018-02-15T11:41:56.785Z,30.30
2018-02-15T11:44:28.271Z,31.33
2018-02-15T11:46:55.903Z,26.10
2018-02-15T11:49:23.561Z,28.37
2018-02-15T11:51:51.219Z,25.23
2018-02-15T11:54:19.640Z,27.70
2018-02-15T11:56:47.303Z,28.80
2018-02-15T11:59:14.988Z,24.77
2018-02-15T12:01:42.630Z,25.23
2018-02-15T12:04:10.232Z,26.73
2018-02-15T12:06:37.844Z,26.47
2018-02-15T12:09:05.476Z,26.93
2018-02-15T12:11:33.137Z,26.87
2018-02-15T12:14:00.796Z,26.17
2018-02-15T12:16:28.743Z,28.03
2018-02-15T12:18:56.485Z,24.10
2018-02-15T12:21:24.157Z,25.63
2018-02-15T12:23:51.803Z,23.87
2018-02-15T12:26:19.470Z,23.47
2018-02-15T12:28:47.110Z,25.30
2018-02-15T12:31:14.740Z,24.43
2018-02-15T12:33:42.420Z,24.07
2018-02-15T12:36:13.621Z,23.93
2018-02-15T12:38:41.277Z,23.17
2018-02-15T12:41:08.915Z,25.90
2018-02-15T12:43:36.588Z,24.90
2018-02-15T12:46:04.242Z,24.27
2018-02-15T12:48:31.914Z,26.20
2018-02-15T12:51:00.341Z,26.07
2018-02-15T12:53:27.981Z,24.03
2018-02-15T12:55:55.654Z,26.43
2018-02-15T12:58:23.320Z,26.90
2018-02-15T13:00:50.996Z,25.57
2018-02-15T13:03:18.682Z,27.87
2018-02-15T13:05:47.301Z,22.93
2018-02-15T13:08:14.936Z,26.53
2018-02-15T13:10:43.343Z,25.53
2018-02-15T13:13:22.746Z,24.33
2018-02-15T13:16:02.301Z,22.17
2018-02-15T13:18:30.656Z,24.03
2018-02-15T13:20:58.303Z,21.57
2018-02-15T13:23:25.972Z,24.23
2018-02-15T13:25:53.814Z,26.53
2018-02-15T13:28:35.345Z,27.03
2018-02-15T13:31:03.028Z,21.47
2018-02-15T13:33:30.691Z,23.57
2018-02-15T13:35:58.357Z,22.20
2018-02-15T13:38:26.031Z,23.50
2018-02-15T13:40:53.663Z,23.57
2018-02-15T13:43:21.307Z,24.30
2018-02-15T13:45:49.059Z,22.73
2018-02-15T13:48:17.432Z,25.53
2018-02-15T13:50:46.549Z,23.47
2018-02-15T13:53:15.107Z,26.80
2018-02-15T13:55:43.959Z,20.77
2018-02-15T13:58:11.616Z,21.27
2018-02-15T14:00:39.271Z,23.63
2018-02-15T14:03:07.686Z,22.57
2018-02-15T14:05:35.338Z,23.63
2018-02-15T14:08:03.037Z,19.60
2018-02-15T14:10:30.613Z,21.37
2018-02-15T14:12:58.291Z,20.40
2018-02-15T14:15:28.088Z,23.77
2018-02-15T14:17:55.690Z,21.83
2018-02-15T14:20:23.352Z,19.53
2018-02-15T14:22:50.992Z,22.63
2018-02-15T14:25:19.438Z,23.47
2018-02-15T14:27:47.030Z,23.80
2018-02-15T14:30:14.690Z,25.07
2018-02-15T14:32:42.341Z,25.63
2018-02-15T14:35:09.970Z,26.37
2018-02-15T14:37:37.656Z,27.70
2018-02-15T14:40:05.316Z,24.00
2018-02-15T14:42:33.000Z,24.70
2018-02-15T14:45:02.790Z,26.13
2018-02-15T14:47:30.443Z,24.67
2018-02-15T14:49:58.108Z,27.53
2018-02-15T14:52:25.773Z,30.47
2018-02-15T14:54:53.382Z,27.33
2018-02-15T14:57:21.741Z,30.03
2018-02-15T14:59:54.952Z,28.87
2018-02-15T15:02:22.672Z,30.40
2018-02-15T15:04:50.248Z,32.73
2018-02-15T15:07:17.864Z,32.30
2018-02-15T15:09:45.514Z,23.90
2018-02-15T15:12:13.182Z,27.30
2018-02-15T15:14:41.608Z,27.10
2018-02-15T15:17:09.284Z,32.37
2018-02-15T15:19:36.932Z,28.23
2018-02-15T15:22:04.531Z,32.03
2018-02-15T15:24:32.146Z,30.37
2018-02-15T15:26:59.739Z,31.30
2018-02-15T15:29:27.321Z,30.20
2018-02-15T15:31:55.025Z,31.03
2018-02-15T15:34:23.929Z,31.80
2018-02-15T15:36:51.529Z,32.27
2018-02-15T15:39:19.210Z,28.47
2018-02-15T15:41:46.857Z,26.40
2018-02-15T15:44:14.511Z,29.70
2018-02-15T15:46:42.176Z,35.33
2018-02-15T15:49:09.825Z,29.97
2018-02-15T15:51:37.500Z,31.97
2018-02-15T15:54:05.123Z,27.00
2018-02-15T15:56:32.754Z,28.83
2018-02-15T15:59:01.225Z,26.70
2018-02-15T16:01:29.758Z,29.90
2018-02-15T16:03:57.446Z,31.93
2018-02-15T16:06:25.736Z,34.13
2018-02-15T16:08:53.397Z,28.20
2018-02-15T16:11:21.119Z,33.13
2018-02-15T16:13:48.772Z,34.30
2018-02-15T16:16:16.438Z,32.73
2018-02-15T16:18:44.108Z,32.67
2018-02-15T16:21:11.783Z,31.70
2018-02-15T16:23:39.449Z,31.90
2018-02-15T16:26:08.215Z,33.33
2018-02-15T16:28:36.143Z,33.03
2018-02-15T16:31:05.005Z,32.90
2018-02-15T16:33:32.856Z,31.30
2018-02-15T16:36:00.488Z,34.50
2018-02-15T16:38:28.148Z,35.87
2018-02-15T16:40:55.927Z,36.53
2018-02-15T16:43:23.604Z,32.93
2018-02-15T16:45:51.267Z,37.67
2018-02-15T16:48:19.721Z,37.13
2018-02-15T16:50:47.382Z,44.80
2018-02-15T16:53:15.865Z,36.03
2018-02-15T16:55:44.780Z,39.63
2018-02-15T16:58:12.444Z,35.20
2018-02-15T17:00:40.819Z,38.40
2018-02-15T17:03:08.478Z,42.23
2018-02-15T17:05:36.192Z,47.87
2018-02-15T17:08:03.868Z,44.23
2018-02-15T17:10:31.549Z,43.10
2018-02-15T17:12:59.199Z,42.30
2018-02-15T17:15:27.020Z,55.83
2018-02-15T17:17:55.345Z,51.23
2018-02-15T17:20:22.989Z,56.37
2018-02-15T17:22:50.994Z,53.13
2018-02-15T17:25:18.641Z,49.43
2018-02-15T17:27:46.343Z,52.27
2018-02-15T17:30:14.103Z,51.10
2018-02-15T17:32:41.761Z,60.33
2018-02-15T17:35:09.690Z,57.37
2018-02-15T17:37:38.724Z,53.87
2018-02-15T17:40:06.345Z,48.73
2018-02-15T17:42:34.177Z,48.07
2018-02-15T17:45:01.920Z,35.63
2018-02-15T17:47:29.781Z,48.97
2018-02-15T17:49:57.469Z,59.97
2018-02-15T17:52:25.161Z,55.27
2018-02-15T17:54:53.022Z,45.97
2018-02-15T17:57:20.875Z,42.27
2018-02-15T17:59:48.976Z,50.23
2018-02-15T18:02:16.645Z,44.47
2018-02-15T18:04:44.303Z,38.40
2018-02-15T18:07:11.967Z,50.90
2018-02-15T18:09:39.650Z,53.87
2018-02-15T18:12:07.319Z,62.03
2018-02-15T18:14:35.946Z,67.83
2018-02-15T18:17:03.609Z,57.43
2018-02-15T18:19:33.199Z,62.27
2018-02-15T18:22:02.685Z,72.50
2018-02-15T18:24:30.325Z,84.53
2018-02-15T18:26:58.817Z,73.83
2018-02-15T18:29:26.601Z,60.63
2018-02-15T18:31:55.015Z,88.17
2018-02-15T18:34:24.289Z,65.53
2018-02-15T18:36:54.046Z,49.53
2018-02-15T18:39:21.709Z,66.37
2018-02-15T18:41:50.311Z,72.63
2018-02-15T18:44:21.316Z,48.97
2018-02-15T18:46:48.990Z,55.60
2018-02-15T18:49:17.415Z,66.90
2018-02-15T18:51:45.291Z,71.20
2018-02-15T18:54:14.207Z,59.00
2018-02-15T18:56:43.377Z,81.73
2018-02-15T18:59:11.864Z,70.13
2018-02-15T19:01:40.713Z,87.20
2018-02-15T19:04:09.319Z,78.53
2018-02-15T19:06:37.571Z,131.50
2018-02-15T19:09:05.189Z,78.67
2018-02-15T19:11:34.083Z,48.23
2018-02-15T19:14:01.727Z,57.67
2018-02-15T19:16:29.882Z,74.53
2018-02-15T19:18:57.755Z,126.73
2018-02-15T19:21:25.435Z,94.27
2018-02-15T19:23:53.380Z,122.20
2018-02-15T19:26:21.773Z,103.17
2018-02-15T19:28:49.438Z,145.20
2018-02-15T19:31:17.123Z,107.43
2018-02-15T19:33:44.788Z,97.53
2018-02-15T19:36:12.704Z,105.57
2018-02-15T19:38:40.377Z,107.67
2018-02-15T19:41:09.265Z,95.83
2018-02-15T19:43:37.096Z,131.80
2018-02-15T19:46:04.896Z,84.93
2018-02-15T19:48:32.553Z,111.90
2018-02-15T19:51:00.257Z,103.03
2018-02-15T19:53:28.518Z,101.97
2018-02-15T19:55:56.803Z,132.60
2018-02-15T19:58:25.498Z,301.27
2018-02-15T20:00:53.241Z,178.73
2018-02-15T20:03:21.617Z,105.47
2018-02-15T20:05:50.116Z,157.77
2018-02-15T20:08:17.928Z,181.20
2018-02-15T20:10:45.645Z,89.70
2018-02-15T20:13:13.495Z,61.13
2018-02-15T20:15:47.232Z,86.03
2018-02-15T20:18:17.448Z,85.07
2018-02-15T20:20:45.138Z,104.50
2018-02-15T20:23:12.778Z,135.30
2018-02-15T20:25:40.471Z,115.57
2018-02-15T20:28:15.643Z,66.20
2018-02-15T20:30:44.959Z,66.77
2018-02-15T20:33:12.981Z,102.27
2018-02-15T20:35:41.152Z,81.80
2018-02-15T20:38:15.264Z,70.73
2018-02-15T20:40:43.309Z,434.13
2018-02-15T20:43:12.616Z,168.67
2018-02-15T20:45:43.363Z,253.27
2018-02-15T20:48:11.658Z,50.10
2018-02-15T20:50:44.827Z,78.17
2018-02-15T20:53:18.996Z,73.67
2018-02-15T20:55:48.303Z,143.73
2018-02-15T20:58:16.391Z,58.47
2018-02-15T21:00:44.055Z,124.53
2018-02-15T21:03:12.385Z,91.93
2018-02-15T21:05:40.844Z,706.60
2018-02-15T21:08:08.708Z,742.73
2018-02-15T21:10:37.186Z,629.50
2018-02-15T21:13:04.794Z,542.37
2018-02-15T21:15:32.692Z,585.83
2018-02-15T21:18:00.377Z,90.60
2018-02-15T21:20:28.197Z,55.93
2018-02-15T21:22:55.912Z,345.43
2018-02-15T21:25:23.772Z,131.13
2018-02-15T21:27:51.439Z,218.13
2018-02-15T21:30:19.098Z,101.70
2018-02-15T21:32:47.136Z,305.27
2018-02-15T21:35:14.816Z,466.53
2018-02-15T21:37:42.440Z,211.70
2018-02-15T21:40:10.485Z,266.63
2018-02-15T21:42:38.416Z,260.17
2018-02-15T21:45:06.182Z,435.87
2018-02-15T21:47:33.842Z,72.10
2018-02-15T21:50:01.523Z,159.83
2018-02-15T21:52:29.501Z,267.80
2018-02-15T21:54:57.457Z,231.93
2018-02-15T21:57:25.155Z,153.23
2018-02-15T21:59:52.831Z,113.77
2018-02-15T22:02:21.303Z,147.13
2018-02-15T22:04:49.744Z,97.47
2018-02-15T22:07:17.425Z,98.10
2018-02-15T22:09:45.092Z,93.73
2018-02-15T22:12:13.034Z,105.50
2018-02-15T22:14:40.714Z,107.83
2018-02-15T22:17:08.622Z,95.23
2018-02-15T22:19:37.094Z,82.80
2018-02-15T22:22:04.885Z,123.60
2018-02-15T22:24:33.495Z,131.30
2018-02-15T22:27:01.161Z,95.67
2018-02-15T22:29:28.796Z,84.13
2018-02-15T22:31:58.050Z,98.40
2018-02-15T22:34:25.716Z,84.80
2018-02-15T22:36:53.391Z,80.57
2018-02-15T22:39:21.041Z,83.53
2018-02-15T22:41:48.705Z,109.27
2018-02-15T22:44:16.498Z,53.63
2018-02-15T22:46:44.221Z,191.90
2018-02-15T22:49:11.897Z,52.77
2018-02-15T22:51:39.553Z,76.30
2018-02-15T22:54:07.840Z,84.93
2018-02-15T22:56:35.506Z,90.20
2018-02-15T22:59:03.397Z,103.93
2018-02-15T23:01:31.843Z,107.63
2018-02-15T23:03:59.678Z,114.63
2018-02-15T23:06:27.404Z,120.07
2018-02-15T23:08:55.107Z,130.00
2018-02-15T23:11:22.749Z,60.40
2018-02-15T23:13:50.470Z,94.47
2018-02-15T23:16:19.171Z,61.20
2018-02-15T23:18:46.959Z,118.70
2018-02-15T23:21:14.631Z,124.33
2018-02-15T23:23:42.481Z,87.67
2018-02-15T23:26:10.146Z,108.93
2018-02-15T23:28:37.871Z,187.40
2018-02-15T23:31:05.549Z,116.30
2018-02-15T23:33:33.223Z,52.30
2018-02-15T23:36:01.764Z,56.60
2018-02-15T23:38:29.441Z,128.10
2018-02-15T23:40:57.087Z,211.80
2018-02-15T23:43:24.768Z,204.33
2018-02-15T23:45:52.526Z,176.60
2018-02-15T23:48:20.155Z,181.07
2018-02-15T23:50:47.816Z,198.97
2018-02-15T23:53:15.480Z,201.33
2018-02-15T23:55:43.130Z,484.53
2018-02-15T23:58:10.797Z,452.93
